Time;durP1;ratioP1;P1;durP2;ratioP2;P2;SDS_P1;SDS_P2;PMS_P1;PMS_P2;Temp;Humidity;BMP_temperature;BMP_pressure;BME280_temperature;BME280_humidity;BME280_pressure;Samples;Min_cycle;Max_cycle;Signal;HPM_P1;HPM_P2
2021/08/03 04:50:32;;;;;;;35.08;21.48;;;;;;;;;;6113372;23;20612;-78
2021/08/03 04:53:00;;;;;;;31.75;20.02;;;;;;;;;;6151304;23;20045;-78
2021/08/03 04:55:27;;;;;;;35.10;18.77;;;;;;;;;;6152141;23;20064;-77
2021/08/03 04:57:54;;;;;;;48.55;29.65;;;;;;;;;;6151706;23;20076;-79
2021/08/03 05:00:22;;;;;;;60.45;33.08;;;;;;;;;;6151448;23;20470;-78
2021/08/03 05:02:49;;;;;;;51.35;29.58;;;;;;;;;;6121439;23;20467;-78
2021/08/03 05:05:17;;;;;;;59.17;32.75;;;;;;;;;;6122287;23;20022;-78
2021/08/03 05:07:57;;;;;;;55.85;32.15;;;;;;;;;;6122568;23;20014;-80
2021/08/03 05:10:26;;;;;;;61.35;33.47;;;;;;;;;;6121772;23;20029;-78
2021/08/03 05:12:53;;;;;;;61.42;34.75;;;;;;;;;;6121273;23;20069;-77
2021/08/03 05:15:21;;;;;;;60.78;31.88;;;;;;;;;;6122324;23;20358;-77
2021/08/03 05:17:49;;;;;;;69.18;34.28;;;;;;;;;;6121586;23;20069;-78
2021/08/03 05:20:16;;;;;;;67.07;35.40;;;;;;;;;;6122023;23;20022;-80
2021/08/03 05:22:44;;;;;;;58.80;32.55;;;;;;;;;;6121309;23;20077;-79
2021/08/03 05:25:14;;;;;;;54.65;27.98;;;;;;;;;;6096322;23;20018;-79
2021/08/03 05:27:41;;;;;;;42.83;22.60;;;;;;;;;;6095978;23;20611;-79
2021/08/03 05:30:09;;;;;;;38.65;20.48;;;;;;;;;;6122251;23;20025;-79
2021/08/03 05:32:36;;;;;;;34.40;19.90;;;;;;;;;;6121427;23;20036;-79
2021/08/03 05:35:05;;;;;;;39.00;21.33;;;;;;;;;;6121804;23;20014;-79
2021/08/03 05:37:32;;;;;;;35.08;21.20;;;;;;;;;;6121964;23;20242;-79
2021/08/03 05:40:02;;;;;;;46.50;25.15;;;;;;;;;;6122037;23;20021;-79
2021/08/03 05:42:31;;;;;;;42.72;24.83;;;;;;;;;;6121444;23;20014;-80
2021/08/03 05:44:58;;;;;;;43.90;24.42;;;;;;;;;;6123411;23;20029;-79
2021/08/03 05:47:25;;;;;;;53.42;25.67;;;;;;;;;;6123882;23;20415;-77
2021/08/03 05:49:53;;;;;;;45.63;25.85;;;;;;;;;;6123606;23;20025;-78
2021/08/03 05:52:20;;;;;;;45.83;24.45;;;;;;;;;;6123015;23;20075;-78
2021/08/03 05:54:47;;;;;;;47.53;24.25;;;;;;;;;;6123585;23;20491;-79
2021/08/03 05:57:15;;;;;;;48.60;26.38;;;;;;;;;;6124251;23;20022;-79
2021/08/03 05:59:44;;;;;;;42.08;24.98;;;;;;;;;;6123484;23;20022;-78
2021/08/03 06:02:11;;;;;;;41.25;26.05;;;;;;;;;;6097098;23;20405;-78
2021/08/03 06:04:38;;;;;;;42.80;26.17;;;;;;;;;;6123531;23;20077;-78
2021/08/03 06:07:08;;;;;;;41.50;26.58;;;;;;;;;;6124176;23;20041;-78
2021/08/03 06:09:37;;;;;;;42.95;27.30;;;;;;;;;;6123390;23;20089;-78
2021/08/03 06:12:05;;;;;;;46.53;29.33;;;;;;;;;;6123328;23;20057;-78
2021/08/03 06:14:35;;;;;;;46.40;27.85;;;;;;;;;;6124009;23;20264;-79
2021/08/03 06:17:05;;;;;;;44.40;30.23;;;;;;;;;;6098014;23;20105;-79
2021/08/03 06:19:35;;;;;;;47.35;31.08;;;;;;;;;;6097498;23;20077;-80
2021/08/03 06:22:03;;;;;;;42.40;27.95;;;;;;;;;;6123501;23;20017;-80
2021/08/03 06:24:30;;;;;;;43.08;27.40;;;;;;;;;;6123683;23;20010;-79
2021/08/03 06:26:58;;;;;;;45.17;28.10;;;;;;;;;;6123490;23;20073;-79
2021/08/03 06:29:27;;;;;;;42.70;26.90;;;;;;;;;;6123743;23;20022;-79
2021/08/03 06:31:55;;;;;;;40.58;25.98;;;;;;;;;;6123182;23;20068;-79
2021/08/03 06:34:23;;;;;;;35.67;24.27;;;;;;;;;;6123082;23;20060;-79
2021/08/03 06:36:51;;;;;;;41.10;24.55;;;;;;;;;;6095828;23;20053;-79
2021/08/03 06:39:18;;;;;;;33.25;24.08;;;;;;;;;;6122713;23;20026;-79
2021/08/03 06:41:46;;;;;;;32.42;23.67;;;;;;;;;;6122475;23;20018;-79
2021/08/03 06:44:21;;;;;;;33.75;24.40;;;;;;;;;;6123584;23;20024;-79
2021/08/03 06:46:51;;;;;;;28.95;23.15;;;;;;;;;;6097284;23;20025;-79
2021/08/03 06:49:20;;;;;;;32.72;25.17;;;;;;;;;;6123213;23;20049;-79
2021/08/03 06:51:50;;;;;;;26.70;22.27;;;;;;;;;;6090909;23;20026;-79
2021/08/03 06:54:17;;;;;;;27.48;21.00;;;;;;;;;;6093492;23;20022;-79
2021/08/03 06:56:46;;;;;;;23.13;19.17;;;;;;;;;;6091966;23;20512;-79
2021/08/03 06:59:16;;;;;;;22.63;17.38;;;;;;;;;;6092314;23;20030;-78
2021/08/03 07:01:47;;;;;;;20.58;16.58;;;;;;;;;;6100414;23;20033;-79
2021/08/03 07:04:18;;;;;;;18.80;13.88;;;;;;;;;;6116849;23;20018;-79
2021/08/03 07:06:49;;;;;;;14.32;12.63;;;;;;;;;;6111213;23;20022;-79
2021/08/03 07:09:17;;;;;;;16.30;12.15;;;;;;;;;;6118529;23;20022;-78
2021/08/03 07:11:45;;;;;;;14.00;12.52;;;;;;;;;;6118344;23;20015;-79
2021/08/03 07:14:12;;;;;;;13.98;11.50;;;;;;;;;;6107417;23;20441;-79
2021/08/03 07:16:40;;;;;;;14.02;11.50;;;;;;;;;;6099620;23;20516;-79
2021/08/03 07:19:09;;;;;;;13.10;11.50;;;;;;;;;;6094486;23;20050;-79
2021/08/03 07:21:39;;;;;;;12.10;10.75;;;;;;;;;;6092959;23;20022;-78
2021/08/03 07:24:10;;;;;;;16.48;9.88;;;;;;;;;;6093399;23;20085;-80
2021/08/03 07:26:38;;;;;;;12.70;9.88;;;;;;;;;;6091321;23;20337;-79
2021/08/03 07:29:06;;;;;;;14.48;10.05;;;;;;;;;;6092983;23;20019;-80
2021/08/03 07:31:33;;;;;;;10.65;9.52;;;;;;;;;;6092808;23;20050;-78
2021/08/03 07:34:01;;;;;;;10.65;9.57;;;;;;;;;;6093311;23;20014;-78
2021/08/03 07:36:29;;;;;;;12.50;10.57;;;;;;;;;;6092841;23;20018;-79
2021/08/03 07:38:59;;;;;;;14.65;11.35;;;;;;;;;;6092755;23;20042;-80
2021/08/03 07:41:26;;;;;;;13.68;10.85;;;;;;;;;;6092522;23;20016;-80
2021/08/03 07:43:56;;;;;;;12.40;10.55;;;;;;;;;;6090704;23;20018;-76
2021/08/03 07:46:24;;;;;;;13.35;10.80;;;;;;;;;;6091647;23;20412;-80
2021/08/03 07:48:51;;;;;;;11.55;10.35;;;;;;;;;;6102298;23;20023;-83
2021/08/03 07:51:20;;;;;;;12.80;9.85;;;;;;;;;;6091658;23;20023;-82
2021/08/03 07:53:48;;;;;;;13.75;10.05;;;;;;;;;;6093462;23;20025;-84
2021/08/03 07:56:16;;;;;;;13.57;9.75;;;;;;;;;;6094357;23;20106;-82
2021/08/03 16:59:33;;;;;;;3.75;3.10;;;;;;;;;;6295365;22;20109;-84
2021/08/03 17:11:53;;;;;;;4.90;3.33;;;;;;;;;;6273336;22;20084;-87
2021/08/03 17:34:18;;;;;;;6.22;4.50;;;;;;;;;;6328825;22;20053;-83
2021/08/03 17:57:00;;;;;;;4.30;2.22;;;;;;;;;;6157511;23;20115;-83
2021/08/03 17:59:28;;;;;;;2.90;2.70;;;;;;;;;;6155667;23;20124;-83
2021/08/03 18:01:58;;;;;;;3.95;2.90;;;;;;;;;;6267994;22;20019;-83
2021/08/03 18:04:26;;;;;;;2.90;2.40;;;;;;;;;;6305720;22;20014;-84
2021/08/03 18:06:54;;;;;;;2.78;2.42;;;;;;;;;;6278319;22;20026;-83
2021/08/03 18:09:22;;;;;;;5.22;2.20;;;;;;;;;;6307498;22;20023;-82
2021/08/03 18:11:50;;;;;;;7.72;2.67;;;;;;;;;;6306063;22;20057;-81
2021/08/03 18:14:19;;;;;;;3.03;2.72;;;;;;;;;;6278264;22;20104;-82
2021/08/03 18:16:47;;;;;;;5.05;2.70;;;;;;;;;;6278609;22;20375;-82
2021/08/03 18:19:16;;;;;;;4.20;2.97;;;;;;;;;;6278211;22;20077;-81
2021/08/03 18:21:44;;;;;;;3.95;2.80;;;;;;;;;;6278153;22;20031;-81
2021/08/03 18:24:12;;;;;;;4.90;3.42;;;;;;;;;;6290214;22;20008;-82
2021/08/03 18:26:41;;;;;;;5.72;3.13;;;;;;;;;;6331549;22;20014;-81
2021/08/03 18:29:13;;;;;;;4.47;2.25;;;;;;;;;;6301662;22;20007;-81
2021/08/03 18:31:43;;;;;;;3.47;2.15;;;;;;;;;;6307540;22;20051;-81
2021/08/03 18:34:20;;;;;;;3.47;1.55;;;;;;;;;;6331937;22;20070;-84
